sensor_id;sensor_type;location;lat;lon;timestamp;P1;durP1;ratioP1;P2;durP2;ratioP2
48613;SDS011;34408;51.426;5.444;2023-06-26T00:01:47;5.15;;;4.43;;
48613;SDS011;34408;51.426;5.444;2023-06-26T00:04:15;5.10;;;4.60;;
48613;SDS011;34408;51.426;5.444;2023-06-26T00:06:43;5.88;;;4.53;;
48613;SDS011;34408;51.426;5.444;2023-06-26T00:09:11;6.72;;;4.53;;
48613;SDS011;34408;51.426;5.444;2023-06-26T00:11:40;6.65;;;4.88;;
48613;SDS011;34408;51.426;5.444;2023-06-26T00:14:08;6.68;;;4.68;;
48613;SDS011;34408;51.426;5.444;2023-06-26T00:16:36;5.82;;;4.50;;
48613;SDS011;34408;51.426;5.444;2023-06-26T00:19:04;5.90;;;4.53;;
48613;SDS011;34408;51.426;5.444;2023-06-26T00:21:31;5.70;;;4.47;;
48613;SDS011;34408;51.426;5.444;2023-06-26T00:23:59;5.25;;;4.30;;
48613;SDS011;34408;51.426;5.444;2023-06-26T00:26:27;5.53;;;4.75;;
48613;SDS011;34408;51.426;5.444;2023-06-26T00:28:56;5.32;;;4.60;;
48613;SDS011;34408;51.426;5.444;2023-06-26T00:31:24;5.32;;;4.10;;
48613;SDS011;34408;51.426;5.444;2023-06-26T00:33:52;5.43;;;4.43;;
48613;SDS011;34408;51.426;5.444;2023-06-26T00:36:20;5.95;;;4.10;;
48613;SDS011;34408;51.426;5.444;2023-06-26T00:38:49;5.30;;;4.65;;
48613;SDS011;34408;51.426;5.444;2023-06-26T00:41:16;5.90;;;4.75;;
48613;SDS011;34408;51.426;5.444;2023-06-26T00:43:44;5.00;;;4.30;;
48613;SDS011;34408;51.426;5.444;2023-06-26T00:46:14;6.03;;;4.80;;
48613;SDS011;34408;51.426;5.444;2023-06-26T00:48:42;5.10;;;4.32;;
48613;SDS011;34408;51.426;5.444;2023-06-26T00:51:11;5.90;;;4.50;;
48613;SDS011;34408;51.426;5.444;2023-06-26T00:53:39;5.18;;;4.57;;
48613;SDS011;34408;51.426;5.444;2023-06-26T00:56:07;5.53;;;4.65;;
48613;SDS011;34408;51.426;5.444;2023-06-26T00:58:35;7.95;;;4.68;;
48613;SDS011;34408;51.426;5.444;2023-06-26T01:01:03;5.13;;;4.32;;
48613;SDS011;34408;51.426;5.444;2023-06-26T01:03:36;5.13;;;4.30;;
48613;SDS011;34408;51.426;5.444;2023-06-26T01:06:06;5.07;;;3.85;;
48613;SDS011;34408;51.426;5.444;2023-06-26T01:08:37;6.35;;;4.40;;
48613;SDS011;34408;51.426;5.444;2023-06-26T01:11:06;5.75;;;4.82;;
48613;SDS011;34408;51.426;5.444;2023-06-26T01:13:34;6.35;;;4.32;;
48613;SDS011;34408;51.426;5.444;2023-06-26T01:16:04;5.25;;;4.30;;
48613;SDS011;34408;51.426;5.444;2023-06-26T01:18:32;7.30;;;4.35;;
48613;SDS011;34408;51.426;5.444;2023-06-26T01:21:04;8.90;;;4.43;;
48613;SDS011;34408;51.426;5.444;2023-06-26T01:23:35;4.63;;;3.90;;
48613;SDS011;34408;51.426;5.444;2023-06-26T01:26:16;5.55;;;4.30;;
48613;SDS011;34408;51.426;5.444;2023-06-26T01:28:46;6.28;;;4.43;;
48613;SDS011;34408;51.426;5.444;2023-06-26T01:31:16;9.75;;;4.35;;
48613;SDS011;34408;51.426;5.444;2023-06-26T01:33:45;5.95;;;4.22;;
48613;SDS011;34408;51.426;5.444;2023-06-26T01:36:13;6.00;;;4.20;;
48613;SDS011;34408;51.426;5.444;2023-06-26T01:38:41;5.43;;;4.10;;
48613;SDS011;34408;51.426;5.444;2023-06-26T01:41:09;4.53;;;3.83;;
48613;SDS011;34408;51.426;5.444;2023-06-26T01:43:41;6.30;;;4.20;;
48613;SDS011;34408;51.426;5.444;2023-06-26T01:46:23;5.30;;;3.60;;
48613;SDS011;34408;51.426;5.444;2023-06-26T01:48:55;5.30;;;4.20;;
48613;SDS011;34408;51.426;5.444;2023-06-26T01:51:30;10.25;;;4.15;;
48613;SDS011;34408;51.426;5.444;2023-06-26T01:54:00;6.05;;;3.88;;
48613;SDS011;34408;51.426;5.444;2023-06-26T01:56:29;9.10;;;3.97;;
48613;SDS011;34408;51.426;5.444;2023-06-26T01:58:59;5.00;;;3.80;;
48613;SDS011;34408;51.426;5.444;2023-06-26T02:01:28;8.55;;;4.05;;
48613;SDS011;34408;51.426;5.444;2023-06-26T02:03:57;7.75;;;4.13;;
48613;SDS011;34408;51.426;5.444;2023-06-26T02:06:25;4.80;;;3.53;;
48613;SDS011;34408;51.426;5.444;2023-06-26T02:08:52;6.50;;;3.88;;
48613;SDS011;34408;51.426;5.444;2023-06-26T02:11:22;5.35;;;3.70;;
48613;SDS011;34408;51.426;5.444;2023-06-26T02:13:50;6.65;;;4.18;;
48613;SDS011;34408;51.426;5.444;2023-06-26T02:16:19;5.57;;;3.50;;
48613;SDS011;34408;51.426;5.444;2023-06-26T02:18:47;5.53;;;3.70;;
48613;SDS011;34408;51.426;5.444;2023-06-26T02:21:15;6.05;;;4.20;;
48613;SDS011;34408;51.426;5.444;2023-06-26T02:23:43;5.40;;;3.65;;
48613;SDS011;34408;51.426;5.444;2023-06-26T02:26:11;6.68;;;4.05;;
48613;SDS011;34408;51.426;5.444;2023-06-26T02:28:39;5.43;;;3.80;;
48613;SDS011;34408;51.426;5.444;2023-06-26T02:31:06;5.93;;;3.55;;
48613;SDS011;34408;51.426;5.444;2023-06-26T02:33:36;4.55;;;3.80;;
48613;SDS011;34408;51.426;5.444;2023-06-26T02:36:04;8.55;;;4.32;;
48613;SDS011;34408;51.426;5.444;2023-06-26T02:38:32;5.15;;;3.72;;
48613;SDS011;34408;51.426;5.444;2023-06-26T02:40:59;5.40;;;3.70;;
48613;SDS011;34408;51.426;5.444;2023-06-26T02:43:27;8.00;;;3.85;;
48613;SDS011;34408;51.426;5.444;2023-06-26T02:45:55;5.38;;;4.05;;
48613;SDS011;34408;51.426;5.444;2023-06-26T02:48:23;5.32;;;3.50;;
48613;SDS011;34408;51.426;5.444;2023-06-26T02:50:52;6.43;;;3.78;;
48613;SDS011;34408;51.426;5.444;2023-06-26T02:53:20;6.70;;;3.92;;
48613;SDS011;34408;51.426;5.444;2023-06-26T02:55:47;3.80;;;3.10;;
48613;SDS011;34408;51.426;5.444;2023-06-26T02:58:15;6.55;;;3.83;;
48613;SDS011;34408;51.426;5.444;2023-06-26T03:00:43;4.80;;;3.22;;
48613;SDS011;34408;51.426;5.444;2023-06-26T03:03:11;7.18;;;3.95;;
48613;SDS011;34408;51.426;5.444;2023-06-26T03:05:39;6.15;;;3.78;;
48613;SDS011;34408;51.426;5.444;2023-06-26T03:08:08;4.70;;;3.38;;
48613;SDS011;34408;51.426;5.444;2023-06-26T03:10:36;7.40;;;3.83;;
48613;SDS011;34408;51.426;5.444;2023-06-26T03:13:04;5.30;;;3.42;;
48613;SDS011;34408;51.426;5.444;2023-06-26T03:15:32;6.75;;;3.17;;
48613;SDS011;34408;51.426;5.444;2023-06-26T03:17:59;6.80;;;3.47;;
48613;SDS011;34408;51.426;5.444;2023-06-26T03:20:27;4.55;;;3.10;;
48613;SDS011;34408;51.426;5.444;2023-06-26T03:22:55;4.38;;;3.45;;
48613;SDS011;34408;51.426;5.444;2023-06-26T03:25:24;4.60;;;3.22;;
48613;SDS011;34408;51.426;5.444;2023-06-26T03:27:52;8.70;;;3.55;;
48613;SDS011;34408;51.426;5.444;2023-06-26T03:30:20;7.03;;;3.47;;
48613;SDS011;34408;51.426;5.444;2023-06-26T03:32:48;5.60;;;3.50;;
48613;SDS011;34408;51.426;5.444;2023-06-26T03:35:16;7.13;;;3.35;;
48613;SDS011;34408;51.426;5.444;2023-06-26T03:37:44;6.78;;;3.45;;
48613;SDS011;34408;51.426;5.444;2023-06-26T03:40:12;6.90;;;3.90;;
48613;SDS011;34408;51.426;5.444;2023-06-26T03:42:41;7.70;;;3.45;;
48613;SDS011;34408;51.426;5.444;2023-06-26T03:45:09;6.80;;;3.65;;
48613;SDS011;34408;51.426;5.444;2023-06-26T03:47:37;6.65;;;3.55;;
48613;SDS011;34408;51.426;5.444;2023-06-26T03:50:05;9.13;;;3.63;;
48613;SDS011;34408;51.426;5.444;2023-06-26T03:52:33;4.45;;;3.10;;
48613;SDS011;34408;51.426;5.444;2023-06-26T03:55:01;6.25;;;3.50;;
48613;SDS011;34408;51.426;5.444;2023-06-26T03:57:29;7.78;;;3.67;;
48613;SDS011;34408;51.426;5.444;2023-06-26T03:59:58;11.73;;;3.40;;
48613;SDS011;34408;51.426;5.444;2023-06-26T04:02:26;6.63;;;3.30;;
48613;SDS011;34408;51.426;5.444;2023-06-26T04:04:54;7.43;;;3.40;;
48613;SDS011;34408;51.426;5.444;2023-06-26T04:07:22;7.93;;;3.40;;
48613;SDS011;34408;51.426;5.444;2023-06-26T04:09:51;8.55;;;3.70;;
48613;SDS011;34408;51.426;5.444;2023-06-26T04:12:19;6.10;;;3.28;;
48613;SDS011;34408;51.426;5.444;2023-06-26T04:14:46;7.32;;;3.17;;
48613;SDS011;34408;51.426;5.444;2023-06-26T04:17:16;5.97;;;3.25;;
48613;SDS011;34408;51.426;5.444;2023-06-26T04:19:43;6.00;;;3.45;;
48613;SDS011;34408;51.426;5.444;2023-06-26T04:22:11;6.03;;;2.90;;
48613;SDS011;34408;51.426;5.444;2023-06-26T04:24:39;8.10;;;3.80;;
48613;SDS011;34408;51.426;5.444;2023-06-26T04:27:07;11.15;;;3.35;;
48613;SDS011;34408;51.426;5.444;2023-06-26T04:29:35;9.52;;;4.38;;
48613;SDS011;34408;51.426;5.444;2023-06-26T04:32:03;9.75;;;4.35;;
48613;SDS011;34408;51.426;5.444;2023-06-26T04:34:32;10.48;;;3.83;;
48613;SDS011;34408;51.426;5.444;2023-06-26T04:37:02;6.80;;;3.35;;
48613;SDS011;34408;51.426;5.444;2023-06-26T04:39:30;7.47;;;3.72;;
48613;SDS011;34408;51.426;5.444;2023-06-26T04:41:58;10.85;;;3.85;;
48613;SDS011;34408;51.426;5.444;2023-06-26T04:44:26;8.48;;;3.65;;
48613;SDS011;34408;51.426;5.444;2023-06-26T04:46:54;9.23;;;3.72;;
48613;SDS011;34408;51.426;5.444;2023-06-26T04:49:21;11.55;;;3.80;;
48613;SDS011;34408;51.426;5.444;2023-06-26T04:51:50;7.60;;;3.60;;
48613;SDS011;34408;51.426;5.444;2023-06-26T04:54:19;11.82;;;4.10;;
48613;SDS011;34408;51.426;5.444;2023-06-26T04:56:47;8.82;;;3.50;;
48613;SDS011;34408;51.426;5.444;2023-06-26T04:59:14;8.15;;;3.67;;
48613;SDS011;34408;51.426;5.444;2023-06-26T05:01:42;8.57;;;3.88;;
48613;SDS011;34408;51.426;5.444;2023-06-26T05:04:15;8.20;;;3.63;;
48613;SDS011;34408;51.426;5.444;2023-06-26T05:06:43;7.72;;;3.65;;
48613;SDS011;34408;51.426;5.444;2023-06-26T05:09:12;8.30;;;3.30;;
48613;SDS011;34408;51.426;5.444;2023-06-26T05:11:40;9.20;;;3.95;;
48613;SDS011;34408;51.426;5.444;2023-06-26T05:14:07;9.00;;;3.92;;
48613;SDS011;34408;51.426;5.444;2023-06-26T05:16:35;8.60;;;3.63;;
48613;SDS011;34408;51.426;5.444;2023-06-26T05:19:03;10.38;;;3.50;;
48613;SDS011;34408;51.426;5.444;2023-06-26T05:21:31;8.52;;;3.50;;
48613;SDS011;34408;51.426;5.444;2023-06-26T05:24:01;9.75;;;3.80;;
48613;SDS011;34408;51.426;5.444;2023-06-26T05:26:32;7.70;;;2.95;;
48613;SDS011;34408;51.426;5.444;2023-06-26T05:29:00;9.07;;;3.42;;
48613;SDS011;34408;51.426;5.444;2023-06-26T05:56:40;10.30;;;2.78;;
48613;SDS011;34408;51.426;5.444;2023-06-26T05:59:09;9.63;;;3.20;;
48613;SDS011;34408;51.426;5.444;2023-06-26T06:01:38;9.32;;;3.22;;
48613;SDS011;34408;51.426;5.444;2023-06-26T06:04:06;6.80;;;3.13;;
48613;SDS011;34408;51.426;5.444;2023-06-26T06:06:34;11.52;;;4.10;;
48613;SDS011;34408;51.426;5.444;2023-06-26T06:09:02;12.85;;;3.42;;
48613;SDS011;34408;51.426;5.444;2023-06-26T06:11:29;8.50;;;2.90;;
48613;SDS011;34408;51.426;5.444;2023-06-26T06:13:59;8.50;;;2.80;;
48613;SDS011;34408;51.426;5.444;2023-06-26T06:16:26;8.50;;;3.03;;
48613;SDS011;34408;51.426;5.444;2023-06-26T06:18:55;8.63;;;2.95;;
48613;SDS011;34408;51.426;5.444;2023-06-26T06:21:23;13.65;;;3.17;;
48613;SDS011;34408;51.426;5.444;2023-06-26T06:23:51;9.23;;;2.97;;
48613;SDS011;34408;51.426;5.444;2023-06-26T06:26:18;11.65;;;3.47;;
48613;SDS011;34408;51.426;5.444;2023-06-26T06:28:46;8.75;;;3.20;;
48613;SDS011;34408;51.426;5.444;2023-06-26T06:31:15;11.20;;;3.08;;
48613;SDS011;34408;51.426;5.444;2023-06-26T06:33:43;10.43;;;2.90;;
48613;SDS011;34408;51.426;5.444;2023-06-26T06:36:11;6.38;;;2.28;;
48613;SDS011;34408;51.426;5.444;2023-06-26T06:38:39;8.68;;;3.13;;
48613;SDS011;34408;51.426;5.444;2023-06-26T06:41:10;10.00;;;3.67;;
48613;SDS011;34408;51.426;5.444;2023-06-26T06:43:39;8.68;;;2.83;;
48613;SDS011;34408;51.426;5.444;2023-06-26T06:46:06;6.82;;;2.33;;
48613;SDS011;34408;51.426;5.444;2023-06-26T06:48:35;8.50;;;2.40;;
48613;SDS011;34408;51.426;5.444;2023-06-26T06:51:03;9.27;;;2.88;;
48613;SDS011;34408;51.426;5.444;2023-06-26T06:53:35;7.93;;;2.38;;
48613;SDS011;34408;51.426;5.444;2023-06-26T06:56:03;7.78;;;2.90;;
48613;SDS011;34408;51.426;5.444;2023-06-26T06:58:31;8.18;;;2.58;;
48613;SDS011;34408;51.426;5.444;2023-06-26T07:01:00;8.18;;;2.75;;
48613;SDS011;34408;51.426;5.444;2023-06-26T07:03:29;7.60;;;2.70;;
48613;SDS011;34408;51.426;5.444;2023-06-26T07:05:58;7.80;;;2.28;;
48613;SDS011;34408;51.426;5.444;2023-06-26T07:08:26;5.32;;;2.53;;
48613;SDS011;34408;51.426;5.444;2023-06-26T07:10:54;8.73;;;2.60;;
48613;SDS011;34408;51.426;5.444;2023-06-26T07:13:22;9.00;;;2.55;;
48613;SDS011;34408;51.426;5.444;2023-06-26T07:15:50;6.68;;;2.45;;
48613;SDS011;34408;51.426;5.444;2023-06-26T07:18:18;6.35;;;2.30;;
48613;SDS011;34408;51.426;5.444;2023-06-26T07:20:46;10.07;;;2.70;;
48613;SDS011;34408;51.426;5.444;2023-06-26T07:23:15;7.68;;;2.35;;
48613;SDS011;34408;51.426;5.444;2023-06-26T07:25:43;6.95;;;2.20;;
48613;SDS011;34408;51.426;5.444;2023-06-26T07:28:11;5.47;;;2.00;;
48613;SDS011;34408;51.426;5.444;2023-06-26T07:30:39;5.85;;;1.90;;
48613;SDS011;34408;51.426;5.444;2023-06-26T07:33:07;6.38;;;2.70;;
48613;SDS011;34408;51.426;5.444;2023-06-26T07:35:35;6.00;;;2.17;;
48613;SDS011;34408;51.426;5.444;2023-06-26T07:38:03;4.45;;;2.20;;
48613;SDS011;34408;51.426;5.444;2023-06-26T07:40:32;7.47;;;2.38;;
48613;SDS011;34408;51.426;5.444;2023-06-26T07:43:00;7.25;;;2.83;;
48613;SDS011;34408;51.426;5.444;2023-06-26T07:45:27;6.57;;;2.17;;
48613;SDS011;34408;51.426;5.444;2023-06-26T07:47:56;4.90;;;2.00;;
48613;SDS011;34408;51.426;5.444;2023-06-26T07:50:24;7.75;;;2.20;;
48613;SDS011;34408;51.426;5.444;2023-06-26T07:52:52;7.20;;;1.90;;
48613;SDS011;34408;51.426;5.444;2023-06-26T07:55:20;6.13;;;2.00;;
48613;SDS011;34408;51.426;5.444;2023-06-26T07:57:49;5.68;;;1.90;;
48613;SDS011;34408;51.426;5.444;2023-06-26T08:00:18;5.30;;;2.10;;
48613;SDS011;34408;51.426;5.444;2023-06-26T08:02:46;4.50;;;2.20;;
48613;SDS011;34408;51.426;5.444;2023-06-26T08:05:14;5.47;;;1.90;;
48613;SDS011;34408;51.426;5.444;2023-06-26T08:07:42;3.60;;;1.90;;
48613;SDS011;34408;51.426;5.444;2023-06-26T08:10:10;5.25;;;1.92;;
48613;SDS011;34408;51.426;5.444;2023-06-26T08:12:37;5.35;;;2.33;;
48613;SDS011;34408;51.426;5.444;2023-06-26T08:15:10;6.03;;;2.00;;
48613;SDS011;34408;51.426;5.444;2023-06-26T08:17:38;3.15;;;1.98;;
48613;SDS011;34408;51.426;5.444;2023-06-26T08:20:07;8.40;;;1.90;;
48613;SDS011;34408;51.426;5.444;2023-06-26T08:22:35;4.18;;;1.83;;
48613;SDS011;34408;51.426;5.444;2023-06-26T08:25:03;4.82;;;1.85;;
48613;SDS011;34408;51.426;5.444;2023-06-26T08:27:32;7.05;;;1.80;;
48613;SDS011;34408;51.426;5.444;2023-06-26T08:30:00;10.32;;;1.90;;
48613;SDS011;34408;51.426;5.444;2023-06-26T08:32:29;4.57;;;1.80;;
48613;SDS011;34408;51.426;5.444;2023-06-26T08:34:57;4.45;;;2.03;;
48613;SDS011;34408;51.426;5.444;2023-06-26T08:37:25;3.65;;;1.70;;
48613;SDS011;34408;51.426;5.444;2023-06-26T08:39:53;6.55;;;1.67;;
48613;SDS011;34408;51.426;5.444;2023-06-26T08:42:20;5.60;;;1.80;;
48613;SDS011;34408;51.426;5.444;2023-06-26T08:44:48;6.97;;;1.80;;
48613;SDS011;34408;51.426;5.444;2023-06-26T08:47:27;4.18;;;1.58;;
48613;SDS011;34408;51.426;5.444;2023-06-26T08:50:00;5.40;;;2.20;;
48613;SDS011;34408;51.426;5.444;2023-06-26T08:52:35;2.83;;;1.15;;
48613;SDS011;34408;51.426;5.444;2023-06-26T08:55:06;4.97;;;1.38;;
48613;SDS011;34408;51.426;5.444;2023-06-26T08:57:37;8.15;;;1.90;;
48613;SDS011;34408;51.426;5.444;2023-06-26T09:00:07;3.85;;;1.58;;
48613;SDS011;34408;51.426;5.444;2023-06-26T09:02:36;4.30;;;1.30;;
48613;SDS011;34408;51.426;5.444;2023-06-26T09:05:06;5.03;;;1.25;;
48613;SDS011;34408;51.426;5.444;2023-06-26T09:07:34;5.30;;;1.52;;
48613;SDS011;34408;51.426;5.444;2023-06-26T09:10:02;5.00;;;2.00;;
48613;SDS011;34408;51.426;5.444;2023-06-26T09:12:30;4.57;;;1.92;;
48613;SDS011;34408;51.426;5.444;2023-06-26T09:14:58;6.78;;;1.65;;
48613;SDS011;34408;51.426;5.444;2023-06-26T09:17:30;3.63;;;1.83;;
48613;SDS011;34408;51.426;5.444;2023-06-26T09:19:58;4.65;;;1.23;;
48613;SDS011;34408;51.426;5.444;2023-06-26T09:22:27;5.30;;;1.30;;
48613;SDS011;34408;51.426;5.444;2023-06-26T09:24:55;7.60;;;1.40;;
48613;SDS011;34408;51.426;5.444;2023-06-26T09:27:23;2.15;;;1.00;;
48613;SDS011;34408;51.426;5.444;2023-06-26T09:29:50;2.58;;;1.33;;
48613;SDS011;34408;51.426;5.444;2023-06-26T09:32:18;5.68;;;1.15;;
48613;SDS011;34408;51.426;5.444;2023-06-26T09:34:46;3.53;;;1.15;;
48613;SDS011;34408;51.426;5.444;2023-06-26T09:37:14;2.13;;;1.10;;
48613;SDS011;34408;51.426;5.444;2023-06-26T09:39:44;3.17;;;1.55;;
48613;SDS011;34408;51.426;5.444;2023-06-26T09:42:13;3.85;;;1.50;;
48613;SDS011;34408;51.426;5.444;2023-06-26T09:44:43;3.90;;;1.10;;
48613;SDS011;34408;51.426;5.444;2023-06-26T09:47:11;2.05;;;1.10;;
48613;SDS011;34408;51.426;5.444;2023-06-26T09:49:40;7.03;;;1.70;;
48613;SDS011;34408;51.426;5.444;2023-06-26T09:52:09;2.35;;;1.13;;
48613;SDS011;34408;51.426;5.444;2023-06-26T09:54:37;3.45;;;1.30;;
48613;SDS011;34408;51.426;5.444;2023-06-26T09:57:09;4.97;;;1.20;;
48613;SDS011;34408;51.426;5.444;2023-06-26T09:59:37;3.13;;;1.33;;
48613;SDS011;34408;51.426;5.444;2023-06-26T10:02:06;2.97;;;1.23;;
48613;SDS011;34408;51.426;5.444;2023-06-26T10:04:34;2.42;;;1.00;;
48613;SDS011;34408;51.426;5.444;2023-06-26T10:07:04;3.58;;;1.20;;
48613;SDS011;34408;51.426;5.444;2023-06-26T10:09:33;2.55;;;1.42;;
48613;SDS011;34408;51.426;5.444;2023-06-26T10:12:06;2.53;;;1.10;;
48613;SDS011;34408;51.426;5.444;2023-06-26T10:14:38;4.18;;;1.00;;
48613;SDS011;34408;51.426;5.444;2023-06-26T10:17:15;3.88;;;1.73;;
48613;SDS011;34408;51.426;5.444;2023-06-26T10:19:46;3.50;;;1.33;;
48613;SDS011;34408;51.426;5.444;2023-06-26T10:22:15;3.10;;;1.20;;
48613;SDS011;34408;51.426;5.444;2023-06-26T10:24:45;4.50;;;1.27;;
48613;SDS011;34408;51.426;5.444;2023-06-26T10:27:15;4.03;;;1.70;;
48613;SDS011;34408;51.426;5.444;2023-06-26T10:29:47;6.15;;;1.20;;
48613;SDS011;34408;51.426;5.444;2023-06-26T10:32:18;2.95;;;1.27;;
48613;SDS011;34408;51.426;5.444;2023-06-26T10:34:49;6.15;;;1.42;;
48613;SDS011;34408;51.426;5.444;2023-06-26T10:37:17;1.95;;;0.93;;
48613;SDS011;34408;51.426;5.444;2023-06-26T10:39:46;4.07;;;1.10;;
48613;SDS011;34408;51.426;5.444;2023-06-26T10:42:15;2.63;;;1.00;;
48613;SDS011;34408;51.426;5.444;2023-06-26T10:44:47;4.60;;;1.30;;
48613;SDS011;34408;51.426;5.444;2023-06-26T10:47:28;1.58;;;1.00;;
48613;SDS011;34408;51.426;5.444;2023-06-26T10:49:57;2.60;;;1.00;;
48613;SDS011;34408;51.426;5.444;2023-06-26T10:55:41;2.88;;;1.42;;
48613;SDS011;34408;51.426;5.444;2023-06-26T10:58:29;3.40;;;1.30;;
48613;SDS011;34408;51.426;5.444;2023-06-26T11:04:08;2.70;;;1.13;;
48613;SDS011;34408;51.426;5.444;2023-06-26T11:06:37;3.17;;;1.23;;
48613;SDS011;34408;51.426;5.444;2023-06-26T11:09:08;2.95;;;1.30;;
48613;SDS011;34408;51.426;5.444;2023-06-26T11:11:56;2.35;;;1.27;;
48613;SDS011;34408;51.426;5.444;2023-06-26T11:14:32;2.72;;;1.10;;
48613;SDS011;34408;51.426;5.444;2023-06-26T11:17:05;2.60;;;1.33;;
48613;SDS011;34408;51.426;5.444;2023-06-26T11:19:33;1.48;;;1.00;;
48613;SDS011;34408;51.426;5.444;2023-06-26T11:22:04;3.47;;;1.23;;
48613;SDS011;34408;51.426;5.444;2023-06-26T11:24:32;3.63;;;1.10;;
48613;SDS011;34408;51.426;5.444;2023-06-26T11:27:01;4.07;;;1.00;;
48613;SDS011;34408;51.426;5.444;2023-06-26T11:29:31;4.25;;;1.27;;
48613;SDS011;34408;51.426;5.444;2023-06-26T11:32:01;2.17;;;1.05;;
48613;SDS011;34408;51.426;5.444;2023-06-26T11:34:33;2.53;;;0.93;;
48613;SDS011;34408;51.426;5.444;2023-06-26T11:37:04;5.03;;;1.10;;
48613;SDS011;34408;51.426;5.444;2023-06-26T11:39:33;5.38;;;1.00;;
48613;SDS011;34408;51.426;5.444;2023-06-26T11:42:00;6.10;;;1.65;;
48613;SDS011;34408;51.426;5.444;2023-06-26T11:44:29;3.65;;;1.35;;
48613;SDS011;34408;51.426;5.444;2023-06-26T11:46:58;4.88;;;1.50;;
48613;SDS011;34408;51.426;5.444;2023-06-26T11:49:26;5.80;;;1.63;;
48613;SDS011;34408;51.426;5.444;2023-06-26T11:51:57;4.32;;;1.38;;
48613;SDS011;34408;51.426;5.444;2023-06-26T11:54:26;2.50;;;1.23;;
48613;SDS011;34408;51.426;5.444;2023-06-26T11:56:54;4.03;;;1.70;;
48613;SDS011;34408;51.426;5.444;2023-06-26T11:59:24;2.85;;;1.42;;
48613;SDS011;34408;51.426;5.444;2023-06-26T12:01:58;4.00;;;1.05;;
48613;SDS011;34408;51.426;5.444;2023-06-26T12:04:27;5.13;;;1.30;;
48613;SDS011;34408;51.426;5.444;2023-06-26T12:06:57;3.53;;;1.48;;
48613;SDS011;34408;51.426;5.444;2023-06-26T12:09:26;4.50;;;1.15;;
48613;SDS011;34408;51.426;5.444;2023-06-26T12:11:55;5.40;;;1.25;;
48613;SDS011;34408;51.426;5.444;2023-06-26T12:14:23;3.03;;;1.73;;
48613;SDS011;34408;51.426;5.444;2023-06-26T12:16:54;4.82;;;1.08;;
48613;SDS011;34408;51.426;5.444;2023-06-26T12:19:26;5.57;;;1.35;;
48613;SDS011;34408;51.426;5.444;2023-06-26T12:21:54;4.47;;;1.55;;
48613;SDS011;34408;51.426;5.444;2023-06-26T12:24:24;2.45;;;1.08;;
48613;SDS011;34408;51.426;5.444;2023-06-26T12:26:54;9.00;;;1.50;;
48613;SDS011;34408;51.426;5.444;2023-06-26T12:29:28;4.70;;;1.23;;
48613;SDS011;34408;51.426;5.444;2023-06-26T12:34:28;6.00;;;1.58;;
48613;SDS011;34408;51.426;5.444;2023-06-26T12:36:59;4.90;;;1.55;;
48613;SDS011;34408;51.426;5.444;2023-06-26T12:39:44;9.65;;;1.50;;
48613;SDS011;34408;51.426;5.444;2023-06-26T12:42:14;4.13;;;1.70;;
48613;SDS011;34408;51.426;5.444;2023-06-26T12:44:43;4.63;;;1.30;;
48613;SDS011;34408;51.426;5.444;2023-06-26T12:47:11;2.40;;;1.30;;
48613;SDS011;34408;51.426;5.444;2023-06-26T12:49:40;2.78;;;1.27;;
48613;SDS011;34408;51.426;5.444;2023-06-26T12:52:09;2.67;;;0.93;;
48613;SDS011;34408;51.426;5.444;2023-06-26T12:54:40;6.35;;;1.42;;
48613;SDS011;34408;51.426;5.444;2023-06-26T12:57:09;2.83;;;1.60;;
48613;SDS011;34408;51.426;5.444;2023-06-26T12:59:37;6.82;;;1.40;;
48613;SDS011;34408;51.426;5.444;2023-06-26T13:02:06;2.55;;;1.73;;
48613;SDS011;34408;51.426;5.444;2023-06-26T13:04:35;2.90;;;1.33;;
48613;SDS011;34408;51.426;5.444;2023-06-26T13:07:06;4.53;;;1.35;;
48613;SDS011;34408;51.426;5.444;2023-06-26T13:09:34;6.05;;;1.60;;
48613;SDS011;34408;51.426;5.444;2023-06-26T13:12:05;3.75;;;1.40;;
48613;SDS011;34408;51.426;5.444;2023-06-26T13:14:35;2.88;;;1.20;;
48613;SDS011;34408;51.426;5.444;2023-06-26T13:17:03;1.85;;;1.10;;
48613;SDS011;34408;51.426;5.444;2023-06-26T13:19:35;2.38;;;1.20;;
48613;SDS011;34408;51.426;5.444;2023-06-26T13:22:03;6.90;;;1.50;;
48613;SDS011;34408;51.426;5.444;2023-06-26T13:24:31;5.47;;;1.13;;
48613;SDS011;34408;51.426;5.444;2023-06-26T13:26:58;3.30;;;1.20;;
48613;SDS011;34408;51.426;5.444;2023-06-26T13:29:28;1.30;;;1.05;;
48613;SDS011;34408;51.426;5.444;2023-06-26T13:31:56;1.90;;;1.08;;
48613;SDS011;34408;51.426;5.444;2023-06-26T13:34:24;2.65;;;1.10;;
48613;SDS011;34408;51.426;5.444;2023-06-26T13:36:54;5.88;;;1.15;;
48613;SDS011;34408;51.426;5.444;2023-06-26T13:39:22;2.63;;;1.30;;
48613;SDS011;34408;51.426;5.444;2023-06-26T13:41:50;1.58;;;1.15;;
48613;SDS011;34408;51.426;5.444;2023-06-26T13:44:17;2.53;;;1.20;;
48613;SDS011;34408;51.426;5.444;2023-06-26T13:47:05;1.85;;;1.00;;
48613;SDS011;34408;51.426;5.444;2023-06-26T13:49:35;2.50;;;1.05;;
48613;SDS011;34408;51.426;5.444;2023-06-26T13:52:03;1.63;;;1.00;;
48613;SDS011;34408;51.426;5.444;2023-06-26T13:54:33;5.07;;;1.92;;
48613;SDS011;34408;51.426;5.444;2023-06-26T13:57:02;2.38;;;0.93;;
48613;SDS011;34408;51.426;5.444;2023-06-26T13:59:31;2.33;;;1.23;;
48613;SDS011;34408;51.426;5.444;2023-06-26T14:01:59;3.47;;;1.50;;
48613;SDS011;34408;51.426;5.444;2023-06-26T14:04:28;5.03;;;1.25;;
48613;SDS011;34408;51.426;5.444;2023-06-26T14:06:56;2.22;;;1.08;;
48613;SDS011;34408;51.426;5.444;2023-06-26T14:09:24;6.53;;;1.95;;
48613;SDS011;34408;51.426;5.444;2023-06-26T14:11:52;3.58;;;1.05;;
48613;SDS011;34408;51.426;5.444;2023-06-26T14:14:19;4.97;;;1.10;;
48613;SDS011;34408;51.426;5.444;2023-06-26T14:16:47;1.90;;;1.40;;
48613;SDS011;34408;51.426;5.444;2023-06-26T14:19:16;2.95;;;1.15;;
48613;SDS011;34408;51.426;5.444;2023-06-26T14:21:46;2.33;;;1.13;;
48613;SDS011;34408;51.426;5.444;2023-06-26T14:24:14;6.70;;;1.33;;
48613;SDS011;34408;51.426;5.444;2023-06-26T14:26:41;4.70;;;1.58;;
48613;SDS011;34408;51.426;5.444;2023-06-26T14:29:09;6.25;;;1.40;;
48613;SDS011;34408;51.426;5.444;2023-06-26T14:31:37;4.15;;;1.35;;
48613;SDS011;34408;51.426;5.444;2023-06-26T14:34:05;4.40;;;1.42;;
48613;SDS011;34408;51.426;5.444;2023-06-26T14:36:33;5.03;;;1.33;;
48613;SDS011;34408;51.426;5.444;2023-06-26T14:39:02;3.65;;;1.30;;
48613;SDS011;34408;51.426;5.444;2023-06-26T14:41:30;6.43;;;1.27;;
48613;SDS011;34408;51.426;5.444;2023-06-26T14:43:58;3.95;;;1.35;;
48613;SDS011;34408;51.426;5.444;2023-06-26T14:46:27;5.93;;;1.05;;
48613;SDS011;34408;51.426;5.444;2023-06-26T14:48:55;5.88;;;1.35;;
48613;SDS011;34408;51.426;5.444;2023-06-26T14:51:23;3.67;;;1.48;;
48613;SDS011;34408;51.426;5.444;2023-06-26T14:53:52;5.78;;;1.27;;
48613;SDS011;34408;51.426;5.444;2023-06-26T14:56:21;4.38;;;1.52;;
48613;SDS011;34408;51.426;5.444;2023-06-26T14:58:49;3.67;;;1.38;;
48613;SDS011;34408;51.426;5.444;2023-06-26T15:01:18;4.47;;;1.17;;
48613;SDS011;34408;51.426;5.444;2023-06-26T15:03:46;2.92;;;1.30;;
48613;SDS011;34408;51.426;5.444;2023-06-26T15:06:14;3.17;;;1.10;;
48613;SDS011;34408;51.426;5.444;2023-06-26T15:08:43;3.97;;;1.55;;
48613;SDS011;34408;51.426;5.444;2023-06-26T15:11:11;2.33;;;1.17;;
48613;SDS011;34408;51.426;5.444;2023-06-26T15:13:40;3.90;;;1.48;;
48613;SDS011;34408;51.426;5.444;2023-06-26T15:16:08;3.78;;;1.42;;
48613;SDS011;34408;51.426;5.444;2023-06-26T15:18:36;2.15;;;1.05;;
48613;SDS011;34408;51.426;5.444;2023-06-26T15:21:03;2.85;;;1.05;;
48613;SDS011;34408;51.426;5.444;2023-06-26T15:23:31;3.72;;;0.93;;
48613;SDS011;34408;51.426;5.444;2023-06-26T15:25:59;2.42;;;0.90;;
48613;SDS011;34408;51.426;5.444;2023-06-26T15:28:27;3.17;;;1.67;;
48613;SDS011;34408;51.426;5.444;2023-06-26T15:30:56;3.53;;;1.10;;
48613;SDS011;34408;51.426;5.444;2023-06-26T15:33:24;57.28;;;10.25;;